createdAt,value
2023-04-20T00:02:47.404Z,7.22
2023-04-20T00:05:51.800Z,7.20
2023-04-20T00:08:54.491Z,7.19
2023-04-20T00:11:57.546Z,7.29
2023-04-20T00:15:00.702Z,7.29
2023-04-20T00:18:03.566Z,7.39
2023-04-20T00:21:08.027Z,7.33
2023-04-20T00:24:10.853Z,7.33
2023-04-20T00:27:13.678Z,7.30
2023-04-20T00:30:16.751Z,7.29
2023-04-20T00:33:19.666Z,7.32
2023-04-20T00:36:23.952Z,7.20
2023-04-20T00:39:26.654Z,7.27
2023-04-20T00:42:29.502Z,7.33
2023-04-20T00:45:32.235Z,7.29
2023-04-20T00:48:35.101Z,7.42
2023-04-20T00:51:39.780Z,7.39
2023-04-20T00:54:43.597Z,7.17
2023-04-20T00:57:46.443Z,7.21
2023-04-20T01:00:49.228Z,7.26
2023-04-20T01:03:52.412Z,7.28
2023-04-20T01:06:57.103Z,7.35
2023-04-20T01:09:59.956Z,7.24
2023-04-20T01:13:03.533Z,7.35
2023-04-20T01:16:06.942Z,7.38
2023-04-20T01:19:09.805Z,7.20
2023-04-20T01:22:18.076Z,7.23
2023-04-20T01:25:22.071Z,7.27
2023-04-20T01:28:26.400Z,7.28
2023-04-20T01:31:29.282Z,7.33
2023-04-20T01:34:32.136Z,7.38
2023-04-20T01:37:36.661Z,7.36
2023-04-20T01:40:40.588Z,7.27
2023-04-20T01:43:43.435Z,7.39
2023-04-20T01:46:46.350Z,7.42
2023-04-20T01:49:49.131Z,7.45
2023-04-20T01:52:53.508Z,7.47
2023-04-20T01:55:56.207Z,7.33
2023-04-20T01:58:59.492Z,7.39
2023-04-20T02:02:02.475Z,7.34
2023-04-20T02:05:06.037Z,7.32
2023-04-20T02:08:10.442Z,7.28
2023-04-20T02:11:13.227Z,7.31
2023-04-20T02:14:16.089Z,7.33
2023-04-20T02:17:19.640Z,7.35
2023-04-20T02:20:22.855Z,7.47
2023-04-20T02:23:27.094Z,7.39
2023-04-20T02:26:29.951Z,7.31
2023-04-20T02:29:32.903Z,7.32
2023-04-20T02:32:35.936Z,7.36
2023-04-20T02:35:38.827Z,7.40
2023-04-20T02:38:42.933Z,7.42
2023-04-20T02:41:45.926Z,7.33
2023-04-20T02:44:48.686Z,7.34
2023-04-20T02:47:51.593Z,7.52
2023-04-20T02:50:56.447Z,7.44
2023-04-20T02:54:00.604Z,7.42
2023-04-20T02:57:04.695Z,7.38
2023-04-20T03:00:09.346Z,7.35
2023-04-20T03:03:12.472Z,7.37
2023-04-20T03:06:15.768Z,7.40
2023-04-20T03:09:20.272Z,7.45
2023-04-20T03:12:23.530Z,7.49
2023-04-20T03:15:26.314Z,7.46
2023-04-20T03:18:29.264Z,7.51
2023-04-20T03:21:33.034Z,7.53
2023-04-20T03:24:37.278Z,7.38
2023-04-20T03:27:40.100Z,7.30
2023-04-20T03:30:42.929Z,7.44
2023-04-20T03:33:45.860Z,7.50
2023-04-20T03:36:48.554Z,7.42
2023-04-20T03:39:52.782Z,7.42
2023-04-20T03:42:56.024Z,7.41
2023-04-20T03:45:58.908Z,7.32
2023-04-20T03:49:01.812Z,7.46
2023-04-20T03:52:04.839Z,7.40
2023-04-20T03:55:10.037Z,7.43
2023-04-20T03:58:12.742Z,7.53
2023-04-20T04:01:15.917Z,7.29
2023-04-20T04:04:18.963Z,7.37
2023-04-20T04:07:22.317Z,7.38
2023-04-20T04:10:26.556Z,7.36
2023-04-20T04:13:29.269Z,7.31
2023-04-20T04:16:32.202Z,7.35
2023-04-20T04:19:35.246Z,7.17
2023-04-20T04:22:38.007Z,7.37
2023-04-20T04:25:42.511Z,7.47
2023-04-20T04:28:46.347Z,7.32
2023-04-20T04:31:49.229Z,7.35
2023-04-20T04:34:53.115Z,7.45
2023-04-20T04:37:55.829Z,7.45
2023-04-20T04:41:00.682Z,7.46
2023-04-20T04:44:03.519Z,7.33
2023-04-20T04:47:06.611Z,7.35
2023-04-20T04:50:10.611Z,7.39
2023-04-20T04:53:13.342Z,7.50
2023-04-20T04:56:18.578Z,7.51
2023-04-20T04:59:21.423Z,7.53
2023-04-20T05:02:24.526Z,7.49
2023-04-20T05:05:27.481Z,7.53
2023-04-20T05:08:30.324Z,7.65
2023-04-20T05:11:34.551Z,7.65
2023-04-20T05:14:37.259Z,7.71
2023-04-20T05:17:40.262Z,7.78
2023-04-20T05:20:43.021Z,7.89
2023-04-20T05:23:46.241Z,7.84
2023-04-20T05:26:50.458Z,7.86
2023-04-20T05:29:53.238Z,7.96
2023-04-20T05:32:56.186Z,7.99
2023-04-20T05:35:59.353Z,8.09
2023-04-20T05:39:02.280Z,8.22
2023-04-20T05:42:06.653Z,8.14
2023-04-20T05:45:10.806Z,8.12
2023-04-20T05:48:13.714Z,8.22
2023-04-20T05:51:17.162Z,8.37
2023-04-20T05:54:20.382Z,8.33
2023-04-20T05:57:24.713Z,8.28
2023-04-20T06:00:27.691Z,8.28
2023-04-20T06:03:30.885Z,8.23
2023-04-20T06:06:33.828Z,8.29
2023-04-20T06:09:36.773Z,8.41
2023-04-20T06:12:41.131Z,8.41
2023-04-20T06:15:43.950Z,8.34
2023-04-20T06:18:46.832Z,8.43
2023-04-20T06:21:49.574Z,8.45
2023-04-20T06:24:52.337Z,8.50
2023-04-20T06:27:56.763Z,8.53
2023-04-20T06:30:59.656Z,8.61
2023-04-20T06:34:02.659Z,8.70
2023-04-20T06:37:07.516Z,8.74
2023-04-20T06:40:10.503Z,8.67
2023-04-20T06:43:14.800Z,8.70
2023-04-20T06:46:17.717Z,8.71
2023-04-20T06:49:20.666Z,8.84
2023-04-20T06:52:23.915Z,8.84
2023-04-20T06:55:26.863Z,8.95
2023-04-20T06:58:31.403Z,9.11
2023-04-20T07:01:34.225Z,9.25
2023-04-20T07:04:37.304Z,9.42
2023-04-20T07:07:40.255Z,9.60
2023-04-20T07:10:43.141Z,9.79
2023-04-20T07:13:47.399Z,10.02
2023-04-20T07:16:53.599Z,10.51
2023-04-20T07:19:56.633Z,10.66
2023-04-20T07:22:59.341Z,10.78
2023-04-20T07:26:02.201Z,10.70
2023-04-20T07:29:06.520Z,10.72
2023-04-20T07:32:09.345Z,10.62
2023-04-20T07:35:12.354Z,10.60
2023-04-20T07:38:16.646Z,10.74
2023-04-20T07:41:19.578Z,10.85
2023-04-20T07:44:23.925Z,11.20
2023-04-20T07:47:27.006Z,11.03
2023-04-20T07:50:30.002Z,11.06
2023-04-20T07:53:33.733Z,10.91
2023-04-20T07:56:36.667Z,10.85
2023-04-20T07:59:41.568Z,10.85
2023-04-20T08:02:44.328Z,10.76
2023-04-20T08:05:47.420Z,10.99
2023-04-20T08:08:50.150Z,10.93
2023-04-20T08:11:53.142Z,10.96
2023-04-20T08:15:00.616Z,10.83
2023-04-20T08:18:03.603Z,11.14
2023-04-20T08:21:07.278Z,10.99
2023-04-20T08:24:10.491Z,11.28
2023-04-20T08:27:13.368Z,11.29
2023-04-20T08:30:17.650Z,11.78
2023-04-20T08:33:20.763Z,11.90
2023-04-20T08:36:23.751Z,11.74
2023-04-20T08:39:26.551Z,11.89
2023-04-20T08:42:29.443Z,11.57
2023-04-20T08:45:33.781Z,11.85
2023-04-20T08:48:37.813Z,11.42
2023-04-20T08:51:40.995Z,11.52
2023-04-20T08:57:50.331Z,11.31
2023-04-20T09:00:54.550Z,11.11
2023-04-20T09:03:57.496Z,10.69
2023-04-20T09:07:00.536Z,10.60
2023-04-20T09:10:03.282Z,10.57
2023-04-20T09:13:06.800Z,10.46
2023-04-20T09:16:14.715Z,10.44
2023-04-20T09:19:22.140Z,10.43
2023-04-20T09:22:31.573Z,10.11
2023-04-20T09:25:34.440Z,10.13
2023-04-20T09:28:39.758Z,10.14
2023-04-20T09:31:44.138Z,10.11
2023-04-20T09:34:46.910Z,10.04
2023-04-20T09:37:50.396Z,10.08
2023-04-20T09:40:53.513Z,10.17
2023-04-20T09:43:56.772Z,10.13
2023-04-20T09:47:01.149Z,10.14
2023-04-20T09:50:19.248Z,10.07
2023-04-20T09:53:27.186Z,10.26
2023-04-20T09:56:32.701Z,10.33
2023-04-20T09:59:35.877Z,10.60
2023-04-20T10:02:40.512Z,10.83
2023-04-20T10:05:43.344Z,10.80
2023-04-20T10:08:46.289Z,10.90
2023-04-20T10:11:53.492Z,11.20
2023-04-20T10:14:58.299Z,11.35
2023-04-20T10:18:02.733Z,11.76
2023-04-20T10:21:09.414Z,11.84
2023-04-20T10:24:12.503Z,11.95
2023-04-20T10:27:19.235Z,12.21
2023-04-20T10:30:23.416Z,12.08
2023-04-20T10:33:27.578Z,11.81
2023-04-20T10:36:32.974Z,12.02
2023-04-20T10:39:37.862Z,13.27
2023-04-20T10:42:44.575Z,14.60
2023-04-20T10:45:47.535Z,14.13
2023-04-20T10:48:55.728Z,14.75
2023-04-20T10:52:00.034Z,14.55
2023-04-20T10:55:03.162Z,14.96
2023-04-20T10:58:05.922Z,15.98
2023-04-20T11:01:08.812Z,16.47
2023-04-20T11:04:15.546Z,16.86
2023-04-20T11:07:21.057Z,17.01
2023-04-20T11:10:26.448Z,17.31
2023-04-20T11:13:30.696Z,16.15
2023-04-20T11:16:47.033Z,15.53
2023-04-20T11:20:05.840Z,15.04
2023-04-20T11:23:08.869Z,14.93
2023-04-20T11:26:12.018Z,14.80
2023-04-20T11:29:14.829Z,14.72
2023-04-20T11:32:20.363Z,14.54
2023-04-20T11:35:24.889Z,14.34
2023-04-20T11:38:31.944Z,14.35
2023-04-20T11:41:34.753Z,14.28
2023-04-20T11:44:37.519Z,14.41
2023-04-20T11:47:40.974Z,14.40
2023-04-20T11:50:45.391Z,14.57
2023-04-20T11:53:48.274Z,15.17
2023-04-20T11:56:51.219Z,15.38
2023-04-20T11:59:54.018Z,15.31
2023-04-20T12:02:57.002Z,15.24
2023-04-20T12:06:01.257Z,15.28
2023-04-20T12:09:06.255Z,15.89
2023-04-20T12:12:09.974Z,15.50
2023-04-20T12:15:13.152Z,15.31
2023-04-20T12:18:16.079Z,15.61
2023-04-20T12:21:20.202Z,16.29
2023-04-20T12:24:23.189Z,16.03
2023-04-20T12:27:27.976Z,16.13
2023-04-20T12:30:30.701Z,15.98
2023-04-20T12:33:33.544Z,16.22
2023-04-20T12:36:37.677Z,16.07
2023-04-20T12:39:40.521Z,16.06
2023-04-20T12:42:43.588Z,15.74
2023-04-20T12:45:47.981Z,15.75
2023-04-20T12:48:50.831Z,15.53
2023-04-20T12:51:54.942Z,15.68
2023-04-20T12:54:57.883Z,15.76
2023-04-20T12:58:00.716Z,15.78
2023-04-20T13:01:04.415Z,15.83
2023-04-20T13:04:07.483Z,16.69
2023-04-20T13:07:12.075Z,17.24
2023-04-20T13:10:14.964Z,17.01
2023-04-20T13:13:17.854Z,16.94
2023-04-20T13:16:20.744Z,16.82
2023-04-20T13:19:23.916Z,16.77
2023-04-20T13:22:28.103Z,16.71
2023-04-20T13:25:32.863Z,17.20
2023-04-20T13:28:35.847Z,16.97
2023-04-20T13:31:38.796Z,16.88
2023-04-20T13:34:41.650Z,16.69
2023-04-20T13:37:46.480Z,16.58
2023-04-20T13:40:49.376Z,16.25
2023-04-20T13:43:52.326Z,16.20
2023-04-20T13:46:55.034Z,16.33
2023-04-20T13:49:58.098Z,16.19
2023-04-20T13:53:02.969Z,16.36
2023-04-20T13:56:06.189Z,16.45
2023-04-20T13:59:09.055Z,16.36
2023-04-20T14:02:11.869Z,16.48
2023-04-20T14:05:14.778Z,16.46
2023-04-20T14:08:19.744Z,16.42
2023-04-20T14:11:22.631Z,16.39
2023-04-20T14:14:26.005Z,16.56
2023-04-20T14:17:30.920Z,16.87
2023-04-20T14:20:33.868Z,17.05
2023-04-20T14:23:37.932Z,17.14
2023-04-20T14:26:41.183Z,17.35
2023-04-20T14:29:44.162Z,17.29
2023-04-20T14:32:55.540Z,17.47
2023-04-20T14:35:58.550Z,17.63
2023-04-20T14:39:03.241Z,17.46
2023-04-20T14:42:06.138Z,17.19
2023-04-20T14:45:10.535Z,16.93
2023-04-20T14:48:13.360Z,16.99
2023-04-20T14:51:16.591Z,16.88
2023-04-20T14:54:20.872Z,17.09
2023-04-20T14:57:23.932Z,16.99
2023-04-20T15:00:28.051Z,17.04
2023-04-20T15:03:31.305Z,17.16
2023-04-20T15:06:34.672Z,17.30
2023-04-20T15:09:38.849Z,16.89
2023-04-20T15:12:41.746Z,16.75
2023-04-20T15:15:48.777Z,16.92
2023-04-20T15:18:53.273Z,16.86
2023-04-20T15:21:56.128Z,16.78
2023-04-20T15:25:00.536Z,16.82
2023-04-20T15:28:03.456Z,16.67
2023-04-20T15:31:08.244Z,16.67
2023-04-20T15:34:14.969Z,16.69
2023-04-20T15:37:17.975Z,16.78
2023-04-20T15:40:22.180Z,16.77
2023-04-20T15:43:25.208Z,16.89
2023-04-20T15:46:28.299Z,16.96
2023-04-20T15:49:31.145Z,16.72
2023-04-20T15:52:33.920Z,16.86
2023-04-20T15:55:40.788Z,16.94
2023-04-20T15:58:43.468Z,16.93
2023-04-20T16:01:46.398Z,16.92
2023-04-20T16:04:49.419Z,16.87
2023-04-20T16:07:53.656Z,16.83
2023-04-20T16:10:57.937Z,16.85
2023-04-20T16:14:00.842Z,16.87
2023-04-20T16:17:03.815Z,16.67
2023-04-20T16:20:08.189Z,16.86
2023-04-20T16:23:11.177Z,16.89
2023-04-20T16:26:16.176Z,16.79
2023-04-20T16:29:19.006Z,16.77
2023-04-20T16:32:22.234Z,16.73
2023-04-20T16:35:25.011Z,16.74
2023-04-20T16:38:27.828Z,16.84
2023-04-20T16:41:31.999Z,16.54
2023-04-20T16:44:34.869Z,16.64
2023-04-20T16:47:37.730Z,16.44
2023-04-20T16:50:42.216Z,16.47
2023-04-20T16:53:45.537Z,16.44
2023-04-20T16:56:49.590Z,16.46
2023-04-20T16:59:52.448Z,16.45
2023-04-20T17:02:55.363Z,16.46
2023-04-20T17:05:58.394Z,16.83
2023-04-20T17:09:06.709Z,16.78
2023-04-20T17:12:11.175Z,16.68
2023-04-20T17:15:13.918Z,16.52
2023-04-20T17:18:16.781Z,16.46
2023-04-20T17:21:19.654Z,16.47
2023-04-20T17:24:22.390Z,16.46
2023-04-20T17:27:26.723Z,16.46
2023-04-20T17:30:29.877Z,16.46
2023-04-20T17:33:32.758Z,16.22
2023-04-20T17:36:35.619Z,16.04
2023-04-20T17:39:38.501Z,16.06
2023-04-20T17:42:42.786Z,16.07
2023-04-20T17:45:45.562Z,15.91
2023-04-20T17:48:48.442Z,15.85
2023-04-20T17:51:51.209Z,15.77
2023-04-20T17:54:55.020Z,15.56
2023-04-20T17:57:59.111Z,15.61
2023-04-20T18:01:02.009Z,15.56
2023-04-20T18:04:05.372Z,15.50
2023-04-20T18:07:08.366Z,15.48
2023-04-20T18:10:13.589Z,15.40
2023-04-20T18:13:17.751Z,15.39
2023-04-20T18:16:20.958Z,15.26
2023-04-20T18:19:23.865Z,15.16
2023-04-20T18:22:26.967Z,15.17
2023-04-20T18:25:29.915Z,15.07
2023-04-20T18:28:34.025Z,14.88
2023-04-20T18:31:36.931Z,14.75
2023-04-20T18:34:39.686Z,14.79
2023-04-20T18:37:42.515Z,14.75
2023-04-20T18:40:45.268Z,14.71
2023-04-20T18:43:49.771Z,14.76
2023-04-20T18:46:52.766Z,14.73
2023-04-20T18:49:55.533Z,14.66
2023-04-20T18:52:58.769Z,14.62
2023-04-20T18:56:02.608Z,14.67
2023-04-20T18:59:08.569Z,14.56
2023-04-20T19:02:13.479Z,14.45
2023-04-20T19:05:17.569Z,14.35
2023-04-20T19:08:20.467Z,14.38
2023-04-20T19:11:23.222Z,14.30
2023-04-20T19:14:27.479Z,14.32
2023-04-20T19:17:30.227Z,14.56
2023-04-20T19:20:33.123Z,14.28
2023-04-20T19:23:36.591Z,14.29
2023-04-20T19:26:39.502Z,14.27
2023-04-20T19:29:43.750Z,14.24
2023-04-20T19:32:46.467Z,14.00
2023-04-20T19:35:50.878Z,13.97
2023-04-20T19:38:53.846Z,13.87
2023-04-20T19:41:57.691Z,13.86
2023-04-20T19:45:01.892Z,13.80
2023-04-20T19:48:05.090Z,13.75
2023-04-20T19:51:08.019Z,13.74
2023-04-20T19:54:11.868Z,13.68
2023-04-20T19:57:14.732Z,13.50
2023-04-20T20:00:19.104Z,13.43
2023-04-20T20:03:21.946Z,13.44
2023-04-20T20:06:25.001Z,13.31
2023-04-20T20:09:27.746Z,13.22
2023-04-20T20:12:30.842Z,13.09
2023-04-20T20:15:35.034Z,13.07
2023-04-20T20:18:38.337Z,12.99
2023-04-20T20:21:41.248Z,12.97
2023-04-20T20:24:44.876Z,12.87
2023-04-20T20:27:47.861Z,12.91
2023-04-20T20:30:51.930Z,12.85
2023-04-20T20:33:55.139Z,12.81
2023-04-20T20:36:58.684Z,12.80
2023-04-20T20:40:08.695Z,12.83
2023-04-20T20:43:13.035Z,12.72
2023-04-20T20:46:19.085Z,12.74
2023-04-20T20:49:21.993Z,12.81
2023-04-20T20:52:24.852Z,12.72
2023-04-20T20:55:27.590Z,12.60
2023-04-20T20:58:31.089Z,12.66
2023-04-20T21:01:35.249Z,12.70
2023-04-20T21:04:38.262Z,12.60
2023-04-20T21:07:41.372Z,12.63
2023-04-20T21:10:44.188Z,12.63
2023-04-20T21:13:47.609Z,12.62
2023-04-20T21:16:51.757Z,12.61
2023-04-20T21:19:54.774Z,12.61
2023-04-20T21:22:58.105Z,12.52
2023-04-20T21:26:01.015Z,12.50
2023-04-20T21:29:03.835Z,12.48
2023-04-20T21:32:09.648Z,12.56
2023-04-20T21:35:12.729Z,12.53
2023-04-20T21:38:15.639Z,12.55
2023-04-20T21:41:19.201Z,12.58
2023-04-20T21:44:22.185Z,12.62
2023-04-20T21:47:26.356Z,12.55
2023-04-20T21:50:29.410Z,12.59
2023-04-20T21:53:32.790Z,12.58
2023-04-20T21:56:35.622Z,12.60
2023-04-20T21:59:38.659Z,12.55
2023-04-20T22:02:43.040Z,12.51
2023-04-20T22:05:46.362Z,12.56
2023-04-20T22:08:49.114Z,12.55
2023-04-20T22:11:52.014Z,12.53
2023-04-20T22:14:54.808Z,12.45
2023-04-20T22:18:00.605Z,12.50
2023-04-20T22:21:03.756Z,12.42
2023-04-20T22:24:07.003Z,12.42
2023-04-20T22:27:09.965Z,12.52
2023-04-20T22:30:13.384Z,12.49
2023-04-20T22:33:17.664Z,12.46
2023-04-20T22:36:20.932Z,12.33
2023-04-20T22:39:24.654Z,12.36
2023-04-20T22:42:27.576Z,12.46
2023-04-20T22:45:30.320Z,12.44
2023-04-20T22:48:35.112Z,12.36
2023-04-20T22:51:38.023Z,12.27
2023-04-20T22:54:40.899Z,12.30
2023-04-20T22:57:43.740Z,12.33
2023-04-20T23:00:46.546Z,12.27
2023-04-20T23:03:51.031Z,12.13
2023-04-20T23:06:55.993Z,12.11
2023-04-20T23:09:59.729Z,12.06
2023-04-20T23:13:02.562Z,12.04
2023-04-20T23:16:05.694Z,11.92
2023-04-20T23:19:09.893Z,11.88
2023-04-20T23:22:12.737Z,11.87
2023-04-20T23:25:15.472Z,11.79
2023-04-20T23:28:18.309Z,11.71
2023-04-20T23:31:21.180Z,11.76
2023-04-20T23:34:26.099Z,11.66
2023-04-20T23:37:28.979Z,11.54
2023-04-20T23:40:31.704Z,11.55
2023-04-20T23:43:34.557Z,11.47
2023-04-20T23:46:37.327Z,11.47
2023-04-20T23:49:41.502Z,11.43
2023-04-20T23:52:44.338Z,11.46
2023-04-20T23:55:51.639Z,11.44
2023-04-20T23:58:54.560Z,11.50
